sensor_id;sensor_type;location;lat;lon;timestamp;temperature;humidity
5796;DHT22;2924;51.458;7.046;2024-01-27T00:01:11;1.80;99.90
5796;DHT22;2924;51.458;7.046;2024-01-27T00:03:36;1.90;99.90
5796;DHT22;2924;51.458;7.046;2024-01-27T00:06:02;1.90;99.90
5796;DHT22;2924;51.458;7.046;2024-01-27T00:08:28;1.90;99.90
5796;DHT22;2924;51.458;7.046;2024-01-27T00:10:53;1.80;99.90
5796;DHT22;2924;51.458;7.046;2024-01-27T00:13:19;1.90;99.90
5796;DHT22;2924;51.458;7.046;2024-01-27T00:15:44;1.90;99.90
5796;DHT22;2924;51.458;7.046;2024-01-27T00:18:10;1.90;99.90
5796;DHT22;2924;51.458;7.046;2024-01-27T00:20:36;1.90;99.90
5796;DHT22;2924;51.458;7.046;2024-01-27T00:23:03;1.80;99.90
5796;DHT22;2924;51.458;7.046;2024-01-27T00:25:29;1.80;99.90
5796;DHT22;2924;51.458;7.046;2024-01-27T00:27:54;1.90;99.90
5796;DHT22;2924;51.458;7.046;2024-01-27T00:30:20;1.80;99.90
5796;DHT22;2924;51.458;7.046;2024-01-27T00:32:46;1.80;99.90
5796;DHT22;2924;51.458;7.046;2024-01-27T00:35:12;1.80;99.90
5796;DHT22;2924;51.458;7.046;2024-01-27T00:37:40;1.80;99.90
5796;DHT22;2924;51.458;7.046;2024-01-27T00:40:10;1.70;99.90
5796;DHT22;2924;51.458;7.046;2024-01-27T00:42:37;1.70;99.90
5796;DHT22;2924;51.458;7.046;2024-01-27T00:45:04;1.60;99.90
5796;DHT22;2924;51.458;7.046;2024-01-27T00:47:31;1.60;99.90
5796;DHT22;2924;51.458;7.046;2024-01-27T00:49:56;1.70;99.90
5796;DHT22;2924;51.458;7.046;2024-01-27T00:52:22;1.70;99.90
5796;DHT22;2924;51.458;7.046;2024-01-27T00:54:48;1.80;99.90
5796;DHT22;2924;51.458;7.046;2024-01-27T00:57:13;1.80;99.90
5796;DHT22;2924;51.458;7.046;2024-01-27T00:59:39;1.70;99.90
5796;DHT22;2924;51.458;7.046;2024-01-27T01:02:06;1.70;99.90
5796;DHT22;2924;51.458;7.046;2024-01-27T01:04:32;1.60;99.90
5796;DHT22;2924;51.458;7.046;2024-01-27T01:06:58;1.50;99.90
5796;DHT22;2924;51.458;7.046;2024-01-27T01:09:23;1.50;99.90
5796;DHT22;2924;51.458;7.046;2024-01-27T01:11:49;1.60;99.90
5796;DHT22;2924;51.458;7.046;2024-01-27T01:14:15;1.60;99.90
5796;DHT22;2924;51.458;7.046;2024-01-27T01:16:40;1.60;99.90
5796;DHT22;2924;51.458;7.046;2024-01-27T01:19:06;1.50;99.90
5796;DHT22;2924;51.458;7.046;2024-01-27T01:21:32;1.50;99.90
5796;DHT22;2924;51.458;7.046;2024-01-27T01:23:57;1.50;99.90
5796;DHT22;2924;51.458;7.046;2024-01-27T01:26:24;1.40;99.90
5796;DHT22;2924;51.458;7.046;2024-01-27T01:28:50;1.50;99.90
5796;DHT22;2924;51.458;7.046;2024-01-27T01:31:16;1.50;99.90
5796;DHT22;2924;51.458;7.046;2024-01-27T01:33:42;1.40;99.90
5796;DHT22;2924;51.458;7.046;2024-01-27T01:36:08;1.50;99.90
5796;DHT22;2924;51.458;7.046;2024-01-27T01:38:34;1.50;99.90
5796;DHT22;2924;51.458;7.046;2024-01-27T01:41:00;1.40;99.90
5796;DHT22;2924;51.458;7.046;2024-01-27T01:43:25;1.40;99.90
5796;DHT22;2924;51.458;7.046;2024-01-27T01:45:51;1.40;99.90
5796;DHT22;2924;51.458;7.046;2024-01-27T01:48:19;1.50;99.90
5796;DHT22;2924;51.458;7.046;2024-01-27T01:50:46;1.60;99.90
5796;DHT22;2924;51.458;7.046;2024-01-27T01:53:12;1.50;99.90
5796;DHT22;2924;51.458;7.046;2024-01-27T01:55:38;1.40;99.90
5796;DHT22;2924;51.458;7.046;2024-01-27T01:58:04;1.40;99.90
5796;DHT22;2924;51.458;7.046;2024-01-27T02:00:30;1.30;99.90
5796;DHT22;2924;51.458;7.046;2024-01-27T02:02:56;1.30;99.90
5796;DHT22;2924;51.458;7.046;2024-01-27T02:05:21;1.20;99.90
5796;DHT22;2924;51.458;7.046;2024-01-27T02:07:47;1.20;99.90
5796;DHT22;2924;51.458;7.046;2024-01-27T02:10:15;1.20;99.90
5796;DHT22;2924;51.458;7.046;2024-01-27T02:12:44;1.20;99.90
5796;DHT22;2924;51.458;7.046;2024-01-27T02:15:11;1.30;99.90
5796;DHT22;2924;51.458;7.046;2024-01-27T02:17:38;1.30;99.90
5796;DHT22;2924;51.458;7.046;2024-01-27T02:20:08;1.30;99.90
5796;DHT22;2924;51.458;7.046;2024-01-27T02:22:34;1.20;99.90
5796;DHT22;2924;51.458;7.046;2024-01-27T02:25:01;1.20;99.90
5796;DHT22;2924;51.458;7.046;2024-01-27T02:27:26;1.10;99.90
5796;DHT22;2924;51.458;7.046;2024-01-27T02:29:52;1.10;99.90
5796;DHT22;2924;51.458;7.046;2024-01-27T02:32:18;1.20;99.90
5796;DHT22;2924;51.458;7.046;2024-01-27T02:34:43;1.30;99.90
5796;DHT22;2924;51.458;7.046;2024-01-27T02:37:09;1.20;99.90
5796;DHT22;2924;51.458;7.046;2024-01-27T02:39:35;1.30;99.90
5796;DHT22;2924;51.458;7.046;2024-01-27T02:42:01;1.20;99.90
5796;DHT22;2924;51.458;7.046;2024-01-27T02:44:26;1.30;99.90
5796;DHT22;2924;51.458;7.046;2024-01-27T02:46:52;1.20;99.90
5796;DHT22;2924;51.458;7.046;2024-01-27T02:49:18;1.30;99.90
5796;DHT22;2924;51.458;7.046;2024-01-27T02:51:43;1.20;99.90
5796;DHT22;2924;51.458;7.046;2024-01-27T02:54:09;1.20;99.90
5796;DHT22;2924;51.458;7.046;2024-01-27T02:56:35;1.10;99.90
5796;DHT22;2924;51.458;7.046;2024-01-27T02:59:00;1.10;99.90
5796;DHT22;2924;51.458;7.046;2024-01-27T03:01:26;1.10;99.90
5796;DHT22;2924;51.458;7.046;2024-01-27T03:03:52;1.00;99.90
5796;DHT22;2924;51.458;7.046;2024-01-27T03:06:17;1.00;99.90
5796;DHT22;2924;51.458;7.046;2024-01-27T03:08:43;1.10;99.90
5796;DHT22;2924;51.458;7.046;2024-01-27T03:11:08;1.00;99.90
5796;DHT22;2924;51.458;7.046;2024-01-27T03:13:34;1.10;99.90
5796;DHT22;2924;51.458;7.046;2024-01-27T03:15:59;1.10;99.90
5796;DHT22;2924;51.458;7.046;2024-01-27T03:18:25;1.10;99.90
5796;DHT22;2924;51.458;7.046;2024-01-27T03:20:51;1.10;99.90
5796;DHT22;2924;51.458;7.046;2024-01-27T03:23:17;1.10;99.90
5796;DHT22;2924;51.458;7.046;2024-01-27T03:25:42;1.10;99.90
5796;DHT22;2924;51.458;7.046;2024-01-27T03:28:08;1.20;99.90
5796;DHT22;2924;51.458;7.046;2024-01-27T03:30:34;1.20;99.90
5796;DHT22;2924;51.458;7.046;2024-01-27T03:32:59;1.20;99.90
5796;DHT22;2924;51.458;7.046;2024-01-27T03:35:25;1.30;99.90
5796;DHT22;2924;51.458;7.046;2024-01-27T03:37:51;1.20;99.90
5796;DHT22;2924;51.458;7.046;2024-01-27T03:40:17;1.20;99.90
5796;DHT22;2924;51.458;7.046;2024-01-27T03:42:43;1.10;99.90
5796;DHT22;2924;51.458;7.046;2024-01-27T03:45:09;1.10;99.90
5796;DHT22;2924;51.458;7.046;2024-01-27T03:47:34;1.10;99.90
5796;DHT22;2924;51.458;7.046;2024-01-27T03:50:00;1.10;99.90
5796;DHT22;2924;51.458;7.046;2024-01-27T03:52:25;1.10;99.90
5796;DHT22;2924;51.458;7.046;2024-01-27T03:54:51;1.10;99.90
5796;DHT22;2924;51.458;7.046;2024-01-27T03:57:16;1.00;99.90
5796;DHT22;2924;51.458;7.046;2024-01-27T03:59:42;1.10;99.90
5796;DHT22;2924;51.458;7.046;2024-01-27T04:02:08;1.00;99.90
5796;DHT22;2924;51.458;7.046;2024-01-27T04:04:33;1.10;99.90
5796;DHT22;2924;51.458;7.046;2024-01-27T04:06:59;1.10;99.90
5796;DHT22;2924;51.458;7.046;2024-01-27T04:09:26;1.00;99.90
5796;DHT22;2924;51.458;7.046;2024-01-27T04:11:52;1.10;99.90
5796;DHT22;2924;51.458;7.046;2024-01-27T04:14:17;1.10;99.90
5796;DHT22;2924;51.458;7.046;2024-01-27T04:16:43;1.10;99.90
5796;DHT22;2924;51.458;7.046;2024-01-27T04:19:08;1.10;99.90
5796;DHT22;2924;51.458;7.046;2024-01-27T04:21:34;1.10;99.90
5796;DHT22;2924;51.458;7.046;2024-01-27T04:23:59;1.20;99.90
5796;DHT22;2924;51.458;7.046;2024-01-27T04:26:25;1.20;99.90
5796;DHT22;2924;51.458;7.046;2024-01-27T04:28:50;1.20;99.90
5796;DHT22;2924;51.458;7.046;2024-01-27T04:31:16;1.20;99.90
5796;DHT22;2924;51.458;7.046;2024-01-27T04:33:41;1.10;99.90
5796;DHT22;2924;51.458;7.046;2024-01-27T04:36:07;1.20;99.90
5796;DHT22;2924;51.458;7.046;2024-01-27T04:38:34;1.10;99.90
5796;DHT22;2924;51.458;7.046;2024-01-27T04:40:59;1.00;99.90
5796;DHT22;2924;51.458;7.046;2024-01-27T04:43:25;1.00;99.90
5796;DHT22;2924;51.458;7.046;2024-01-27T04:45:50;1.10;99.90
5796;DHT22;2924;51.458;7.046;2024-01-27T04:48:16;1.10;99.90
5796;DHT22;2924;51.458;7.046;2024-01-27T04:50:41;1.10;99.90
5796;DHT22;2924;51.458;7.046;2024-01-27T04:53:07;1.20;99.90
5796;DHT22;2924;51.458;7.046;2024-01-27T04:55:33;1.20;99.90
5796;DHT22;2924;51.458;7.046;2024-01-27T04:57:58;1.20;99.90
5796;DHT22;2924;51.458;7.046;2024-01-27T05:00:25;1.20;99.90
5796;DHT22;2924;51.458;7.046;2024-01-27T05:02:52;1.10;99.90
5796;DHT22;2924;51.458;7.046;2024-01-27T05:05:18;1.20;99.90
5796;DHT22;2924;51.458;7.046;2024-01-27T05:07:43;1.20;99.90
5796;DHT22;2924;51.458;7.046;2024-01-27T05:10:14;1.10;99.90
5796;DHT22;2924;51.458;7.046;2024-01-27T05:12:39;1.10;99.90
5796;DHT22;2924;51.458;7.046;2024-01-27T05:15:05;1.10;99.90
5796;DHT22;2924;51.458;7.046;2024-01-27T05:17:31;1.10;99.90
5796;DHT22;2924;51.458;7.046;2024-01-27T05:19:58;1.20;99.90
5796;DHT22;2924;51.458;7.046;2024-01-27T05:22:23;1.30;99.90
5796;DHT22;2924;51.458;7.046;2024-01-27T05:24:49;1.30;99.90
5796;DHT22;2924;51.458;7.046;2024-01-27T05:27:14;1.40;99.90
5796;DHT22;2924;51.458;7.046;2024-01-27T05:29:40;1.30;99.90
5796;DHT22;2924;51.458;7.046;2024-01-27T05:32:06;1.30;99.90
5796;DHT22;2924;51.458;7.046;2024-01-27T05:34:31;1.20;99.90
5796;DHT22;2924;51.458;7.046;2024-01-27T05:36:57;1.30;99.90
5796;DHT22;2924;51.458;7.046;2024-01-27T05:39:22;1.20;99.90
5796;DHT22;2924;51.458;7.046;2024-01-27T05:41:48;1.20;99.90
5796;DHT22;2924;51.458;7.046;2024-01-27T05:44:14;1.20;99.90
5796;DHT22;2924;51.458;7.046;2024-01-27T05:46:39;1.20;99.90
5796;DHT22;2924;51.458;7.046;2024-01-27T05:49:05;1.30;99.90
5796;DHT22;2924;51.458;7.046;2024-01-27T05:51:30;1.20;99.90
5796;DHT22;2924;51.458;7.046;2024-01-27T05:53:56;1.20;99.90
5796;DHT22;2924;51.458;7.046;2024-01-27T05:56:21;1.20;99.90
5796;DHT22;2924;51.458;7.046;2024-01-27T05:58:47;1.30;99.90
5796;DHT22;2924;51.458;7.046;2024-01-27T06:01:13;1.30;99.90
5796;DHT22;2924;51.458;7.046;2024-01-27T06:03:41;1.30;99.90
5796;DHT22;2924;51.458;7.046;2024-01-27T06:06:08;1.30;99.90
5796;DHT22;2924;51.458;7.046;2024-01-27T06:08:33;1.40;99.90
5796;DHT22;2924;51.458;7.046;2024-01-27T06:10:59;1.40;99.90
5796;DHT22;2924;51.458;7.046;2024-01-27T06:13:25;1.40;99.90
5796;DHT22;2924;51.458;7.046;2024-01-27T06:15:51;1.40;99.90
5796;DHT22;2924;51.458;7.046;2024-01-27T06:18:16;1.40;99.90
5796;DHT22;2924;51.458;7.046;2024-01-27T06:20:42;1.40;99.90
5796;DHT22;2924;51.458;7.046;2024-01-27T06:23:08;1.30;99.90
5796;DHT22;2924;51.458;7.046;2024-01-27T06:25:34;1.30;99.90
5796;DHT22;2924;51.458;7.046;2024-01-27T06:28:00;1.30;99.90
5796;DHT22;2924;51.458;7.046;2024-01-27T06:30:25;1.20;99.90
5796;DHT22;2924;51.458;7.046;2024-01-27T06:32:51;1.20;99.90
5796;DHT22;2924;51.458;7.046;2024-01-27T06:35:16;1.20;99.90
5796;DHT22;2924;51.458;7.046;2024-01-27T06:37:42;1.20;99.90
5796;DHT22;2924;51.458;7.046;2024-01-27T06:40:08;1.20;99.90
5796;DHT22;2924;51.458;7.046;2024-01-27T06:42:36;1.30;99.90
5796;DHT22;2924;51.458;7.046;2024-01-27T06:45:02;1.30;99.90
5796;DHT22;2924;51.458;7.046;2024-01-27T06:47:28;1.40;99.90
5796;DHT22;2924;51.458;7.046;2024-01-27T06:49:54;1.40;99.90
5796;DHT22;2924;51.458;7.046;2024-01-27T06:52:20;1.40;99.90
5796;DHT22;2924;51.458;7.046;2024-01-27T06:54:45;1.40;99.90
5796;DHT22;2924;51.458;7.046;2024-01-27T06:57:21;1.40;99.90
5796;DHT22;2924;51.458;7.046;2024-01-27T06:59:48;1.40;99.90
5796;DHT22;2924;51.458;7.046;2024-01-27T07:02:24;1.40;99.90
5796;DHT22;2924;51.458;7.046;2024-01-27T07:04:51;1.40;99.90
5796;DHT22;2924;51.458;7.046;2024-01-27T07:07:24;1.40;99.90
5796;DHT22;2924;51.458;7.046;2024-01-27T07:09:50;1.30;99.90
5796;DHT22;2924;51.458;7.046;2024-01-27T07:12:16;1.30;99.90
5796;DHT22;2924;51.458;7.046;2024-01-27T07:14:41;1.30;99.90
5796;DHT22;2924;51.458;7.046;2024-01-27T07:17:07;1.30;99.90
5796;DHT22;2924;51.458;7.046;2024-01-27T07:19:32;1.30;99.90
5796;DHT22;2924;51.458;7.046;2024-01-27T07:21:58;1.40;99.90
5796;DHT22;2924;51.458;7.046;2024-01-27T07:24:26;1.40;99.90
5796;DHT22;2924;51.458;7.046;2024-01-27T07:26:51;1.40;99.90
5796;DHT22;2924;51.458;7.046;2024-01-27T07:29:17;1.50;99.90
5796;DHT22;2924;51.458;7.046;2024-01-27T07:31:42;1.40;99.90
5796;DHT22;2924;51.458;7.046;2024-01-27T07:34:08;1.50;99.90
5796;DHT22;2924;51.458;7.046;2024-01-27T07:36:34;1.40;99.90
5796;DHT22;2924;51.458;7.046;2024-01-27T07:39:00;1.40;99.90
5796;DHT22;2924;51.458;7.046;2024-01-27T07:41:25;1.50;99.90
5796;DHT22;2924;51.458;7.046;2024-01-27T07:43:51;1.60;99.90
5796;DHT22;2924;51.458;7.046;2024-01-27T07:46:16;1.70;99.90
5796;DHT22;2924;51.458;7.046;2024-01-27T07:48:45;1.80;99.90
5796;DHT22;2924;51.458;7.046;2024-01-27T07:51:11;1.90;99.90
5796;DHT22;2924;51.458;7.046;2024-01-27T07:53:36;2.10;99.90
5796;DHT22;2924;51.458;7.046;2024-01-27T07:56:02;2.20;99.90
5796;DHT22;2924;51.458;7.046;2024-01-27T07:58:28;2.30;99.90
5796;DHT22;2924;51.458;7.046;2024-01-27T08:00:53;2.40;99.90
5796;DHT22;2924;51.458;7.046;2024-01-27T08:03:19;2.50;99.90
5796;DHT22;2924;51.458;7.046;2024-01-27T08:05:44;2.60;99.90
5796;DHT22;2924;51.458;7.046;2024-01-27T08:08:10;2.80;99.90
5796;DHT22;2924;51.458;7.046;2024-01-27T08:10:36;3.00;99.90
5796;DHT22;2924;51.458;7.046;2024-01-27T08:13:02;3.10;99.90
5796;DHT22;2924;51.458;7.046;2024-01-27T08:15:28;3.30;99.90
5796;DHT22;2924;51.458;7.046;2024-01-27T08:17:53;3.40;99.90
5796;DHT22;2924;51.458;7.046;2024-01-27T08:20:19;3.60;99.90
5796;DHT22;2924;51.458;7.046;2024-01-27T08:22:45;3.80;99.90
5796;DHT22;2924;51.458;7.046;2024-01-27T08:25:11;4.00;99.90
5796;DHT22;2924;51.458;7.046;2024-01-27T08:27:37;4.10;99.90
5796;DHT22;2924;51.458;7.046;2024-01-27T08:30:02;4.20;99.90
5796;DHT22;2924;51.458;7.046;2024-01-27T08:32:28;4.40;99.90
5796;DHT22;2924;51.458;7.046;2024-01-27T08:34:53;4.60;99.90
5796;DHT22;2924;51.458;7.046;2024-01-27T08:37:20;4.60;99.90
5796;DHT22;2924;51.458;7.046;2024-01-27T08:39:46;4.60;99.90
5796;DHT22;2924;51.458;7.046;2024-01-27T08:42:11;4.70;99.90
5796;DHT22;2924;51.458;7.046;2024-01-27T08:44:38;4.90;99.90
5796;DHT22;2924;51.458;7.046;2024-01-27T08:47:04;5.10;99.90
5796;DHT22;2924;51.458;7.046;2024-01-27T08:49:29;5.10;99.90
5796;DHT22;2924;51.458;7.046;2024-01-27T08:51:55;5.10;99.90
5796;DHT22;2924;51.458;7.046;2024-01-27T08:54:21;5.10;99.90
5796;DHT22;2924;51.458;7.046;2024-01-27T08:56:47;5.20;99.90
5796;DHT22;2924;51.458;7.046;2024-01-27T08:59:12;5.40;99.90
5796;DHT22;2924;51.458;7.046;2024-01-27T09:01:38;5.50;99.90
5796;DHT22;2924;51.458;7.046;2024-01-27T09:04:03;5.70;99.90
5796;DHT22;2924;51.458;7.046;2024-01-27T09:06:29;5.80;99.90
5796;DHT22;2924;51.458;7.046;2024-01-27T09:08:55;5.90;99.90
5796;DHT22;2924;51.458;7.046;2024-01-27T09:11:20;6.10;99.90
5796;DHT22;2924;51.458;7.046;2024-01-27T09:13:49;6.30;99.90
5796;DHT22;2924;51.458;7.046;2024-01-27T09:16:17;6.50;99.90
5796;DHT22;2924;51.458;7.046;2024-01-27T09:18:43;6.50;99.90
5796;DHT22;2924;51.458;7.046;2024-01-27T09:21:09;6.70;99.90
5796;DHT22;2924;51.458;7.046;2024-01-27T09:23:34;6.70;99.90
5796;DHT22;2924;51.458;7.046;2024-01-27T09:26:00;6.70;99.90
5796;DHT22;2924;51.458;7.046;2024-01-27T09:28:26;7.00;99.90
5796;DHT22;2924;51.458;7.046;2024-01-27T09:30:52;7.20;99.90
5796;DHT22;2924;51.458;7.046;2024-01-27T09:33:17;7.40;99.90
5796;DHT22;2924;51.458;7.046;2024-01-27T09:35:46;7.40;99.90
5796;DHT22;2924;51.458;7.046;2024-01-27T09:38:12;7.30;99.90
5796;DHT22;2924;51.458;7.046;2024-01-27T09:40:40;7.20;99.90
5796;DHT22;2924;51.458;7.046;2024-01-27T09:43:05;7.40;99.90
5796;DHT22;2924;51.458;7.046;2024-01-27T09:45:32;7.60;99.90
5796;DHT22;2924;51.458;7.046;2024-01-27T09:47:59;7.70;99.90
5796;DHT22;2924;51.458;7.046;2024-01-27T09:50:26;7.80;99.90
5796;DHT22;2924;51.458;7.046;2024-01-27T09:52:53;7.80;99.90
5796;DHT22;2924;51.458;7.046;2024-01-27T09:55:19;7.70;99.90
5796;DHT22;2924;51.458;7.046;2024-01-27T09:57:45;7.70;99.90
5796;DHT22;2924;51.458;7.046;2024-01-27T10:00:11;7.90;99.90
5796;DHT22;2924;51.458;7.046;2024-01-27T10:02:41;8.00;99.90
5796;DHT22;2924;51.458;7.046;2024-01-27T10:05:08;8.10;99.90
5796;DHT22;2924;51.458;7.046;2024-01-27T10:07:34;8.10;99.90
5796;DHT22;2924;51.458;7.046;2024-01-27T10:10:00;8.40;99.90
5796;DHT22;2924;51.458;7.046;2024-01-27T10:12:26;8.60;99.90
5796;DHT22;2924;51.458;7.046;2024-01-27T10:14:53;8.70;99.90
5796;DHT22;2924;51.458;7.046;2024-01-27T10:17:23;8.90;99.90
5796;DHT22;2924;51.458;7.046;2024-01-27T10:20:00;8.90;99.90
5796;DHT22;2924;51.458;7.046;2024-01-27T10:22:27;8.90;99.90
5796;DHT22;2924;51.458;7.046;2024-01-27T10:24:52;9.10;99.90
5796;DHT22;2924;51.458;7.046;2024-01-27T10:27:18;9.60;99.90
5796;DHT22;2924;51.458;7.046;2024-01-27T10:29:56;9.80;99.90
5796;DHT22;2924;51.458;7.046;2024-01-27T10:32:22;9.80;99.90
5796;DHT22;2924;51.458;7.046;2024-01-27T10:35:10;9.60;99.90
5796;DHT22;2924;51.458;7.046;2024-01-27T10:37:37;9.30;99.90
5796;DHT22;2924;51.458;7.046;2024-01-27T10:40:07;9.10;99.90
5796;DHT22;2924;51.458;7.046;2024-01-27T10:42:34;9.10;99.90
5796;DHT22;2924;51.458;7.046;2024-01-27T10:45:00;9.20;99.90
5796;DHT22;2924;51.458;7.046;2024-01-27T10:47:30;9.20;99.90
5796;DHT22;2924;51.458;7.046;2024-01-27T10:49:57;9.10;99.90
5796;DHT22;2924;51.458;7.046;2024-01-27T10:52:31;9.30;99.90
5796;DHT22;2924;51.458;7.046;2024-01-27T10:55:01;9.50;99.90
5796;DHT22;2924;51.458;7.046;2024-01-27T10:57:30;9.80;99.90
5796;DHT22;2924;51.458;7.046;2024-01-27T10:59:56;10.20;99.90
5796;DHT22;2924;51.458;7.046;2024-01-27T11:02:23;10.40;99.90
5796;DHT22;2924;51.458;7.046;2024-01-27T11:04:50;10.70;99.90
5796;DHT22;2924;51.458;7.046;2024-01-27T11:07:19;10.90;99.90
5796;DHT22;2924;51.458;7.046;2024-01-27T11:09:49;11.10;99.90
5796;DHT22;2924;51.458;7.046;2024-01-27T11:12:21;11.10;99.90
5796;DHT22;2924;51.458;7.046;2024-01-27T11:14:48;11.30;99.90
5796;DHT22;2924;51.458;7.046;2024-01-27T11:17:17;11.50;99.90
5796;DHT22;2924;51.458;7.046;2024-01-27T11:19:46;11.80;99.90
5796;DHT22;2924;51.458;7.046;2024-01-27T11:25:08;12.20;99.90
5796;DHT22;2924;51.458;7.046;2024-01-27T11:27:34;12.40;99.90
5796;DHT22;2924;51.458;7.046;2024-01-27T11:30:00;12.40;99.90
5796;DHT22;2924;51.458;7.046;2024-01-27T11:32:26;12.00;99.90
5796;DHT22;2924;51.458;7.046;2024-01-27T11:34:52;11.90;99.90
5796;DHT22;2924;51.458;7.046;2024-01-27T11:37:18;11.60;99.90
5796;DHT22;2924;51.458;7.046;2024-01-27T11:39:49;11.60;99.90
5796;DHT22;2924;51.458;7.046;2024-01-27T11:42:16;11.60;99.90
5796;DHT22;2924;51.458;7.046;2024-01-27T11:44:43;11.70;99.90
5796;DHT22;2924;51.458;7.046;2024-01-27T11:47:17;11.70;99.90
5796;DHT22;2924;51.458;7.046;2024-01-27T11:49:50;11.50;99.90
5796;DHT22;2924;51.458;7.046;2024-01-27T11:52:16;11.30;99.90
5796;DHT22;2924;51.458;7.046;2024-01-27T11:54:43;11.10;99.90
5796;DHT22;2924;51.458;7.046;2024-01-27T11:57:09;11.10;99.90
5796;DHT22;2924;51.458;7.046;2024-01-27T11:59:34;11.10;99.90
5796;DHT22;2924;51.458;7.046;2024-01-27T12:02:01;10.90;99.90
5796;DHT22;2924;51.458;7.046;2024-01-27T12:04:27;10.80;99.90
5796;DHT22;2924;51.458;7.046;2024-01-27T12:06:53;10.60;99.90
5796;DHT22;2924;51.458;7.046;2024-01-27T12:09:19;10.60;99.90
5796;DHT22;2924;51.458;7.046;2024-01-27T12:11:45;10.90;99.90
5796;DHT22;2924;51.458;7.046;2024-01-27T12:14:11;11.20;99.90
5796;DHT22;2924;51.458;7.046;2024-01-27T12:16:38;11.40;99.90
5796;DHT22;2924;51.458;7.046;2024-01-27T12:19:04;11.60;99.90
5796;DHT22;2924;51.458;7.046;2024-01-27T12:21:29;11.60;99.90
5796;DHT22;2924;51.458;7.046;2024-01-27T12:23:58;11.60;99.90
5796;DHT22;2924;51.458;7.046;2024-01-27T12:26:31;11.60;99.90
5796;DHT22;2924;51.458;7.046;2024-01-27T12:28:57;11.30;99.90
5796;DHT22;2924;51.458;7.046;2024-01-27T12:31:26;11.10;99.90
5796;DHT22;2924;51.458;7.046;2024-01-27T12:33:56;11.20;99.90
5796;DHT22;2924;51.458;7.046;2024-01-27T12:36:24;11.30;99.90
5796;DHT22;2924;51.458;7.046;2024-01-27T12:39:00;11.30;99.90
5796;DHT22;2924;51.458;7.046;2024-01-27T12:41:27;11.50;99.90
5796;DHT22;2924;51.458;7.046;2024-01-27T12:43:56;11.60;99.90
5796;DHT22;2924;51.458;7.046;2024-01-27T12:46:22;11.90;99.90
5796;DHT22;2924;51.458;7.046;2024-01-27T12:48:48;11.80;99.90
5796;DHT22;2924;51.458;7.046;2024-01-27T12:51:13;11.60;99.90
5796;DHT22;2924;51.458;7.046;2024-01-27T12:53:41;11.70;99.90
5796;DHT22;2924;51.458;7.046;2024-01-27T12:56:14;11.80;99.90
5796;DHT22;2924;51.458;7.046;2024-01-27T12:58:40;11.60;99.90
5796;DHT22;2924;51.458;7.046;2024-01-27T13:01:07;11.50;99.90
5796;DHT22;2924;51.458;7.046;2024-01-27T13:03:33;11.50;99.90
5796;DHT22;2924;51.458;7.046;2024-01-27T13:05:59;11.50;99.90
5796;DHT22;2924;51.458;7.046;2024-01-27T13:08:24;11.50;99.90
5796;DHT22;2924;51.458;7.046;2024-01-27T13:10:50;11.70;99.90
5796;DHT22;2924;51.458;7.046;2024-01-27T13:13:16;11.70;99.90
5796;DHT22;2924;51.458;7.046;2024-01-27T13:15:42;11.70;99.90
5796;DHT22;2924;51.458;7.046;2024-01-27T13:18:09;11.60;99.90
5796;DHT22;2924;51.458;7.046;2024-01-27T13:20:35;11.60;99.90
5796;DHT22;2924;51.458;7.046;2024-01-27T13:23:01;11.50;99.90
5796;DHT22;2924;51.458;7.046;2024-01-27T13:25:27;11.70;99.90
5796;DHT22;2924;51.458;7.046;2024-01-27T13:27:52;11.80;99.90
5796;DHT22;2924;51.458;7.046;2024-01-27T13:30:18;11.60;99.90
5796;DHT22;2924;51.458;7.046;2024-01-27T13:32:44;11.30;99.90
5796;DHT22;2924;51.458;7.046;2024-01-27T13:35:10;11.10;99.90
5796;DHT22;2924;51.458;7.046;2024-01-27T13:37:36;11.00;99.90
5796;DHT22;2924;51.458;7.046;2024-01-27T13:40:03;10.80;99.90
5796;DHT22;2924;51.458;7.046;2024-01-27T13:42:30;10.90;99.90
5796;DHT22;2924;51.458;7.046;2024-01-27T13:44:55;11.10;99.90
5796;DHT22;2924;51.458;7.046;2024-01-27T13:47:21;11.20;99.90
5796;DHT22;2924;51.458;7.046;2024-01-27T13:49:47;11.00;99.90
5796;DHT22;2924;51.458;7.046;2024-01-27T13:52:13;10.80;99.90
5796;DHT22;2924;51.458;7.046;2024-01-27T13:54:38;10.60;99.90
5796;DHT22;2924;51.458;7.046;2024-01-27T13:57:04;10.60;99.90
5796;DHT22;2924;51.458;7.046;2024-01-27T13:59:30;10.60;99.90
5796;DHT22;2924;51.458;7.046;2024-01-27T14:01:57;10.80;99.90
5796;DHT22;2924;51.458;7.046;2024-01-27T14:04:23;10.60;99.90
5796;DHT22;2924;51.458;7.046;2024-01-27T14:06:50;10.50;99.90
5796;DHT22;2924;51.458;7.046;2024-01-27T14:09:16;10.40;99.90
5796;DHT22;2924;51.458;7.046;2024-01-27T14:11:43;10.20;99.90
5796;DHT22;2924;51.458;7.046;2024-01-27T14:14:09;10.20;99.90
5796;DHT22;2924;51.458;7.046;2024-01-27T14:16:34;10.10;99.90
5796;DHT22;2924;51.458;7.046;2024-01-27T14:19:00;10.10;99.90
5796;DHT22;2924;51.458;7.046;2024-01-27T14:21:26;9.90;99.90
5796;DHT22;2924;51.458;7.046;2024-01-27T14:23:52;9.90;99.90
5796;DHT22;2924;51.458;7.046;2024-01-27T14:26:29;9.80;99.90
5796;DHT22;2924;51.458;7.046;2024-01-27T14:28:55;9.60;99.90
5796;DHT22;2924;51.458;7.046;2024-01-27T14:31:21;9.30;99.90
5796;DHT22;2924;51.458;7.046;2024-01-27T14:33:47;8.90;99.90
5796;DHT22;2924;51.458;7.046;2024-01-27T14:36:13;8.70;99.90
5796;DHT22;2924;51.458;7.046;2024-01-27T14:38:39;8.60;99.90
5796;DHT22;2924;51.458;7.046;2024-01-27T14:41:07;8.60;99.90
5796;DHT22;2924;51.458;7.046;2024-01-27T14:43:32;8.60;99.90
5796;DHT22;2924;51.458;7.046;2024-01-27T14:45:58;8.50;99.90
5796;DHT22;2924;51.458;7.046;2024-01-27T14:48:24;8.40;99.90
5796;DHT22;2924;51.458;7.046;2024-01-27T14:50:50;8.30;99.90
5796;DHT22;2924;51.458;7.046;2024-01-27T14:53:22;8.40;99.90
5796;DHT22;2924;51.458;7.046;2024-01-27T14:55:49;8.30;99.90
5796;DHT22;2924;51.458;7.046;2024-01-27T14:58:14;8.30;99.90
5796;DHT22;2924;51.458;7.046;2024-01-27T15:00:40;8.30;99.90
5796;DHT22;2924;51.458;7.046;2024-01-27T15:03:06;8.20;99.90
5796;DHT22;2924;51.458;7.046;2024-01-27T15:05:32;8.10;99.90
5796;DHT22;2924;51.458;7.046;2024-01-27T15:08:02;7.90;99.90
5796;DHT22;2924;51.458;7.046;2024-01-27T15:10:27;7.80;99.90
5796;DHT22;2924;51.458;7.046;2024-01-27T15:12:54;7.70;99.90
5796;DHT22;2924;51.458;7.046;2024-01-27T15:15:20;7.60;99.90
5796;DHT22;2924;51.458;7.046;2024-01-27T15:17:48;7.60;99.90
5796;DHT22;2924;51.458;7.046;2024-01-27T15:20:14;7.60;99.90
5796;DHT22;2924;51.458;7.046;2024-01-27T15:22:40;7.50;99.90
5796;DHT22;2924;51.458;7.046;2024-01-27T15:25:07;7.40;99.90
5796;DHT22;2924;51.458;7.046;2024-01-27T15:27:33;7.20;99.90
5796;DHT22;2924;51.458;7.046;2024-01-27T15:29:59;7.10;99.90
5796;DHT22;2924;51.458;7.046;2024-01-27T15:32:25;7.00;99.90
5796;DHT22;2924;51.458;7.046;2024-01-27T15:34:52;6.90;99.90
5796;DHT22;2924;51.458;7.046;2024-01-27T15:37:18;6.70;99.90
5796;DHT22;2924;51.458;7.046;2024-01-27T15:39:44;6.50;99.90
5796;DHT22;2924;51.458;7.046;2024-01-27T15:42:10;6.50;99.90
5796;DHT22;2924;51.458;7.046;2024-01-27T15:44:36;6.40;99.90
5796;DHT22;2924;51.458;7.046;2024-01-27T15:47:01;6.20;99.90
5796;DHT22;2924;51.458;7.046;2024-01-27T15:49:27;6.10;99.90
5796;DHT22;2924;51.458;7.046;2024-01-27T15:51:53;6.10;99.90
5796;DHT22;2924;51.458;7.046;2024-01-27T15:54:22;5.90;99.90
5796;DHT22;2924;51.458;7.046;2024-01-27T15:56:47;5.80;99.90
5796;DHT22;2924;51.458;7.046;2024-01-27T15:59:13;5.70;99.90
5796;DHT22;2924;51.458;7.046;2024-01-27T16:01:40;5.60;99.90
5796;DHT22;2924;51.458;7.046;2024-01-27T16:04:06;5.50;99.90
5796;DHT22;2924;51.458;7.046;2024-01-27T16:06:31;5.30;99.90
5796;DHT22;2924;51.458;7.046;2024-01-27T16:08:57;5.20;99.90
5796;DHT22;2924;51.458;7.046;2024-01-27T16:11:23;5.30;99.90